createdAt,value
2023-02-01T00:09:39.867Z,9.07
2023-02-01T00:19:41.127Z,9.68
2023-02-01T00:29:42.361Z,10.07
2023-02-01T03:15:04.653Z,7.10
2023-02-01T03:25:05.923Z,9.55
2023-02-01T03:35:07.166Z,8.40
2023-02-01T03:45:08.433Z,8.52
2023-02-01T03:55:09.776Z,8.13
2023-02-01T04:15:30.071Z,7.45
2023-02-01T04:25:31.342Z,6.45
2023-02-01T04:35:32.614Z,7.13
2023-02-01T04:45:33.853Z,6.45
2023-02-01T04:55:35.155Z,7.82
2023-02-01T05:05:36.545Z,7.60
2023-02-01T05:36:15.685Z,9.27
2023-02-01T05:46:16.984Z,11.77
2023-02-01T05:56:18.294Z,14.95
2023-02-01T06:06:20.581Z,17.67
2023-02-01T06:16:22.152Z,15.18
2023-02-01T06:26:23.481Z,19.88
2023-02-01T09:11:13.520Z,15.63
2023-02-01T09:21:14.768Z,13.43
2023-02-01T09:31:16.118Z,15.77
2023-02-01T09:41:17.414Z,19.05
2023-02-01T09:51:18.738Z,19.98
2023-02-01T10:01:20.138Z,22.83
2023-02-01T10:11:21.457Z,18.77
2023-02-01T10:21:22.690Z,25.77
2023-02-01T10:31:24.022Z,20.92
2023-02-01T10:41:25.428Z,17.83
2023-02-01T10:51:26.692Z,22.60
2023-02-01T11:01:27.946Z,23.05
2023-02-01T11:11:30.128Z,23.85
2023-02-01T11:21:31.648Z,23.73
2023-02-01T11:31:32.976Z,22.63
2023-02-01T11:41:34.222Z,16.45
2023-02-01T11:51:35.539Z,21.77
2023-02-01T12:01:36.834Z,21.45
2023-02-01T12:11:38.125Z,20.33
2023-02-01T12:21:40.557Z,17.42
2023-02-01T12:31:41.875Z,15.50
2023-02-01T12:41:43.323Z,15.25
2023-02-01T12:51:44.971Z,18.23
2023-02-01T13:01:47.564Z,15.82
2023-02-01T13:11:49.665Z,18.67
2023-02-01T13:21:50.884Z,16.80
2023-02-01T13:31:52.337Z,15.00
2023-02-01T13:41:54.867Z,18.95
2023-02-01T13:51:56.145Z,16.08
2023-02-01T14:01:57.561Z,10.35
2023-02-01T14:11:59.039Z,17.45
2023-02-01T14:22:02.304Z,19.23
2023-02-01T14:32:03.843Z,10.50
2023-02-01T14:42:05.174Z,17.08
2023-02-01T14:52:06.450Z,14.23
2023-02-01T15:02:07.844Z,17.38
2023-02-01T15:12:09.086Z,9.88
2023-02-01T15:22:10.899Z,19.73
2023-02-01T15:32:12.187Z,21.20
2023-02-01T15:42:16.544Z,16.33
2023-02-01T15:52:17.833Z,16.08
2023-02-01T16:02:19.385Z,13.48
2023-02-01T16:12:20.667Z,18.65
2023-02-01T16:22:22.000Z,14.35
2023-02-01T16:32:23.250Z,19.42
2023-02-01T16:53:09.126Z,18.55
2023-02-01T17:03:10.540Z,14.13
2023-02-01T17:13:11.824Z,21.25
2023-02-01T17:23:13.093Z,25.83
2023-02-01T17:33:22.291Z,18.48
2023-02-01T17:43:26.408Z,17.02
2023-02-01T17:53:33.295Z,22.92
2023-02-01T18:03:35.726Z,16.92
2023-02-01T18:13:37.017Z,21.20
2023-02-01T18:23:38.319Z,15.68
2023-02-01T18:33:39.605Z,18.98
2023-02-01T18:43:40.835Z,26.90
2023-02-01T18:53:42.082Z,17.63
2023-02-01T19:03:47.596Z,23.70
2023-02-01T19:13:55.474Z,16.27
2023-02-01T19:23:56.746Z,16.02
2023-02-01T19:33:58.128Z,23.73
2023-02-01T19:43:59.421Z,20.13
2023-02-01T19:54:00.694Z,19.83
2023-02-01T20:04:05.949Z,15.10
2023-02-01T20:14:07.517Z,25.13
2023-02-01T20:24:08.848Z,21.45
2023-02-01T20:34:11.106Z,20.95
2023-02-01T20:44:12.456Z,22.00
2023-02-01T20:54:13.753Z,19.73
2023-02-01T21:04:15.003Z,19.35
2023-02-01T21:14:16.343Z,20.40
2023-02-01T21:24:17.785Z,23.27
2023-02-01T21:34:19.006Z,19.75
2023-02-01T21:44:20.351Z,23.15
2023-02-01T21:54:21.809Z,21.05
2023-02-01T22:04:25.893Z,19.25
2023-02-01T22:14:27.274Z,22.70
2023-02-01T22:24:28.588Z,18.42
2023-02-01T22:34:29.987Z,18.25
2023-02-01T22:44:31.305Z,20.75
2023-02-01T22:54:32.594Z,17.80
2023-02-01T23:04:33.927Z,21.67
2023-02-01T23:14:55.198Z,20.85
2023-02-01T23:24:56.518Z,21.63
2023-02-01T23:34:57.812Z,18.40
2023-02-01T23:44:59.091Z,22.50
2023-02-01T23:55:00.352Z,21.55
